Date,TemperatureHighF,TemperatureAvgF,TemperatureLowF,DewpointHighF,DewpointAvgF,DewpointLowF,HumidityHigh,HumidityAvg,HumidityLow,PressureMaxIn,PressureMinIn,WindSpeedMaxMPH,WindSpeedAvgMPH,GustSpeedMaxMPH,PrecipitationSumIn
2013-10-1,68.0,68.0,68.0,58.0,58.0,58.0,68,68,68,29.83,29.83,3,3,0,0.00
2013-10-2,66.0,64.0,62.0,60.0,55.0,50.0,87,72,58,30.03,29.85,9,6,0,0.00
2013-10-3,66.0,59.5,50.0,51.0,48.5,47.0,94,68,50,30.14,30.02,3,2,0,0.00
2013-10-4,62.0,58.2,55.0,53.0,51.2,48.0,91,78,60,30.11,30.03,3,2,0,0.00
2013-10-5,62.0,58.8,55.0,51.0,49.8,48.0,86,72,60,30.17,30.09,1,1,0,0.00
2013-10-6,60.0,59.0,57.0,59.0,51.0,43.0,96,76,53,30.03,29.73,5,3,0,0.00
2013-10-7,65.0,57.0,50.0,64.0,52.2,40.0,93,82,69,29.86,29.57,7,5,0,0.00
2013-10-8,58.0,50.2,44.0,46.0,43.0,41.0,88,76,57,30.31,30.06,3,2,0,0.00
2013-10-9,64.0,55.2,50.0,51.0,46.8,43.0,90,76,46,30.38,30.28,5,4,0,0.00
2013-10-10,65.0,54.7,48.0,53.0,48.7,46.0,94,79,63,30.30,30.24,2,2,0,0.00
2013-10-11,64.0,57.6,47.0,57.0,52.4,45.0,96,83,75,30.22,30.11,11,6,0,0.00
2013-10-12,74.0,62.8,56.0,61.0,46.3,-99.9,84,61,45,30.14,30.07,13,7,0,0.00
2013-10-13,64.0,60.2,52.0,59.0,51.5,47.0,86,73,61,30.33,30.10,15,8,0,0.00
2013-10-14,57.0,52.6,46.0,48.0,45.3,42.0,85,75,67,30.40,30.35,7,2,0,0.00
2013-10-15,66.0,53.6,41.0,54.0,45.0,37.0,88,74,54,30.31,29.89,5,2,0,0.00
2013-10-16,64.0,60.8,56.0,60.0,52.5,45.0,88,74,55,29.79,29.74,9,6,0,0.00
2013-10-17,55.0,52.8,49.0,48.0,44.3,41.0,88,74,60,29.85,29.76,3,2,0,0.00
2013-10-18,55.0,51.8,49.0,47.0,43.7,40.0,86,74,61,29.83,29.74,9,3,0,0.00
2013-10-19,52.0,46.7,45.0,46.0,37.3,-99.9,87,78,78,29.83,29.63,17,6,0,0.00
2013-10-20,49.0,45.8,44.0,42.0,39.5,38.0,92,78,67,29.93,29.75,11,4,0,0.00
2013-10-21,55.0,50.5,45.0,49.0,44.6,38.0,90,80,64,29.88,29.71,10,8,0,0.00
2013-10-22,46.0,43.7,38.0,38.0,34.6,31.0,76,70,63,29.79,29.65,14,10,0,0.00
2013-10-23,42.0,36.9,33.0,35.0,29.8,27.0,85,76,57,29.79,29.75,9,2,0,0.00
2013-10-24,44.0,38.9,36.0,31.0,29.4,27.0,81,68,57,30.02,29.73,7,4,0,0.00
2013-10-25,44.0,39.1,33.0,35.0,30.6,27.0,82,72,54,30.18,29.86,16,7,0,0.00
2013-10-26,44.0,40.5,39.0,41.0,29.3,-99.9,88,73,58,29.91,29.52,18,12,0,0.00
2013-10-27,40.0,37.9,35.0,36.0,32.6,29.0,89,81,73,30.04,29.81,17,8,0,0.00
2013-10-28,34.0,29.6,28.0,23.0,16.3,-99.9,72,67,62,30.52,30.21,15,7,0,0.00
2013-10-29,40.0,36.0,32.0,28.0,24.2,21.0,71,62,57,30.50,30.22,10,8,0,0.00
2013-10-30,45.0,41.8,40.0,43.0,35.0,29.0,94,77,60,30.19,29.94,10,8,0,0.00
2013-10-31,49.0,47.6,47.0,49.0,47.2,45.0,99,97,92,29.76,29.28,6,5,0,0.00